Hellas Glory — 9HWN9 — position and weather

sailwx.info

Track history (hours):
 
Tides and Currents Weather Stations Pressure Air Temp Water Temp Dewpoint Dewpoint Depression Visibility Wind Speed Wind Dir Waves Ship Positions

Hellas Glory

Last reported at 2015-Mar-17 13:28 UTC. Time now 2015-Mar-29 03:12 UTC.
Position S 34°40' E 024°41'.
Warning: this ship's position is 11 days out of date.

Length 225 m; draft 7.8 m.

Type: Tanker. MMSI: 249636000.

Date/timePositionNaut miles runAvg speedWind from/ knotsBaromVisibWave heightAir tempDewpointWater temp
2015-Mar-17 13:28S 34°40' E 024°41'2117.8
2015-Mar-17 12:18S 34°34' E 025°05'39214.6
2015-Mar-16 09:28S 30°25' E 031°05'1617.2
2015-Mar-16 08:33S 30°10' E 031°11'1616.3
2015-Mar-16 07:33S 29°54' E 031°14'7 7.0
2015-Mar-16 06:33S 29°49' E 031°08'3 2.6
2015-Mar-16 05:33S 29°52' E 031°08'4 3.5
2015-Mar-16 04:32S 29°51' E 031°12'1111.6
2015-Mar-16 03:33S 29°56' E 031°24'1716.8
2015-Mar-16 02:33S 30°01' E 031°42'5816.9
2015-Mar-15 23:07S 30°20' E 032°46'1517.5
2015-Mar-15 22:15S 30°25' E 033°02'1317.6
2015-Mar-15 21:31S 30°29' E 033°16'  
Track history (hours):
 
Tides and Currents Weather Stations Pressure Air Temp Water Temp Dewpoint Dewpoint Depression Visibility Wind Speed Wind Dir Waves Ship Positions

Hellas Glory

Last reported at 2015-Mar-17 13:28 UTC. Time now 2015-Mar-29 03:12 UTC.
Position S 34°40' E 024°41'.
Warning: this ship's position is 11 days out of date.

Length 225 m; draft 7.8 m.

Type: Tanker. MMSI: 249636000.

Date/timePositionNaut miles runAvg speedWind from/ knotsBaromVisibWave heightAir tempDewpointWater temp
2015-Mar-17 13:28S 34°40' E 024°41'2117.8
2015-Mar-17 12:18S 34°34' E 025°05'39214.6
2015-Mar-16 09:28S 30°25' E 031°05'1617.2
2015-Mar-16 08:33S 30°10' E 031°11'1616.3
2015-Mar-16 07:33S 29°54' E 031°14'7 7.0
2015-Mar-16 06:33S 29°49' E 031°08'3 2.6
2015-Mar-16 05:33S 29°52' E 031°08'4 3.5
2015-Mar-16 04:32S 29°51' E 031°12'1111.6
2015-Mar-16 03:33S 29°56' E 031°24'1716.8
2015-Mar-16 02:33S 30°01' E 031°42'5816.9
2015-Mar-15 23:07S 30°20' E 032°46'1517.5
2015-Mar-15 22:15S 30°25' E 033°02'1317.6
2015-Mar-15 21:31S 30°29' E 033°16'  

Dump ship's entire track history